sensor_id;sensor_type;location;lat;lon;timestamp;pressure;altitude;pressure_sealevel;temperature;humidity
74218;BME280;62579;47.288;18.646;2023-03-23T00:01:06;99776.09;;;6.37;74.15
74218;BME280;62579;47.288;18.646;2023-03-23T00:03:31;99776.78;;;6.32;74.36
74218;BME280;62579;47.288;18.646;2023-03-23T00:05:58;99779.84;;;6.25;74.47
74218;BME280;62579;47.288;18.646;2023-03-23T00:08:29;99779.00;;;6.19;74.73
74218;BME280;62579;47.288;18.646;2023-03-23T00:10:55;99772.41;;;6.20;74.57
74218;BME280;62579;47.288;18.646;2023-03-23T00:13:26;99779.75;;;6.19;74.53
74218;BME280;62579;47.288;18.646;2023-03-23T00:15:52;99780.78;;;6.22;74.25
74218;BME280;62579;47.288;18.646;2023-03-23T00:18:18;99771.66;;;6.04;74.83
74218;BME280;62579;47.288;18.646;2023-03-23T00:20:51;99775.38;;;5.92;75.45
74218;BME280;62579;47.288;18.646;2023-03-23T00:23:19;99765.91;;;5.97;75.21
74218;BME280;62579;47.288;18.646;2023-03-23T00:25:45;99759.63;;;6.05;74.79
74218;BME280;62579;47.288;18.646;2023-03-23T00:28:11;99763.91;;;5.97;75.07
74218;BME280;62579;47.288;18.646;2023-03-23T00:30:38;99761.97;;;5.98;74.88
74218;BME280;62579;47.288;18.646;2023-03-23T00:33:04;99758.44;;;5.92;75.28
74218;BME280;62579;47.288;18.646;2023-03-23T00:35:29;99757.41;;;5.89;75.33
74218;BME280;62579;47.288;18.646;2023-03-23T00:37:55;99750.81;;;5.90;75.37
74218;BME280;62579;47.288;18.646;2023-03-23T00:40:21;99750.72;;;5.99;74.95
74218;BME280;62579;47.288;18.646;2023-03-23T00:42:46;99749.41;;;5.95;75.23
74218;BME280;62579;47.288;18.646;2023-03-23T00:45:13;99744.47;;;5.93;75.68
74218;BME280;62579;47.288;18.646;2023-03-23T00:47:39;99752.47;;;5.88;75.78
74218;BME280;62579;47.288;18.646;2023-03-23T00:50:06;99741.69;;;5.88;75.50
74218;BME280;62579;47.288;18.646;2023-03-23T00:52:32;99746.59;;;5.89;74.69
74218;BME280;62579;47.288;18.646;2023-03-23T00:54:57;99744.72;;;5.81;74.13
74218;BME280;62579;47.288;18.646;2023-03-23T00:57:22;99744.63;;;5.61;74.65
74218;BME280;62579;47.288;18.646;2023-03-23T00:59:51;99742.47;;;5.50;75.17
74218;BME280;62579;47.288;18.646;2023-03-23T01:02:16;99739.84;;;5.41;75.68
74218;BME280;62579;47.288;18.646;2023-03-23T01:04:43;99738.38;;;5.40;75.80
74218;BME280;62579;47.288;18.646;2023-03-23T01:07:11;99737.13;;;5.41;75.97
74218;BME280;62579;47.288;18.646;2023-03-23T01:09:38;99735.66;;;5.40;75.98
74218;BME280;62579;47.288;18.646;2023-03-23T01:12:05;99729.78;;;5.41;75.89
74218;BME280;62579;47.288;18.646;2023-03-23T01:14:30;99734.91;;;5.39;76.02
74218;BME280;62579;47.288;18.646;2023-03-23T01:16:56;99730.28;;;5.40;75.77
74218;BME280;62579;47.288;18.646;2023-03-23T01:19:21;99733.78;;;5.31;75.94
74218;BME280;62579;47.288;18.646;2023-03-23T01:21:47;99728.28;;;5.26;76.58
74218;BME280;62579;47.288;18.646;2023-03-23T01:24:12;99733.84;;;5.22;76.94
74218;BME280;62579;47.288;18.646;2023-03-23T01:26:38;99728.16;;;5.20;77.65
74218;BME280;62579;47.288;18.646;2023-03-23T01:29:03;99730.34;;;5.31;77.39
74218;BME280;62579;47.288;18.646;2023-03-23T01:31:28;99724.28;;;5.36;77.05
74218;BME280;62579;47.288;18.646;2023-03-23T01:33:54;99729.25;;;5.37;76.90
74218;BME280;62579;47.288;18.646;2023-03-23T01:36:27;99728.94;;;5.35;76.89
74218;BME280;62579;47.288;18.646;2023-03-23T01:38:53;99727.19;;;5.32;77.00
74218;BME280;62579;47.288;18.646;2023-03-23T01:41:19;99725.03;;;5.36;76.74
74218;BME280;62579;47.288;18.646;2023-03-23T01:46:43;99725.69;;;5.31;76.63
74218;BME280;62579;47.288;18.646;2023-03-23T01:49:13;99721.03;;;5.32;76.43
74218;BME280;62579;47.288;18.646;2023-03-23T01:51:41;99716.28;;;5.27;76.99
74218;BME280;62579;47.288;18.646;2023-03-23T01:54:09;99721.09;;;5.23;76.83
74218;BME280;62579;47.288;18.646;2023-03-23T01:56:39;99724.66;;;5.29;76.64
74218;BME280;62579;47.288;18.646;2023-03-23T01:59:07;99720.75;;;5.30;76.88
74218;BME280;62579;47.288;18.646;2023-03-23T02:01:32;99721.84;;;5.23;77.38
74218;BME280;62579;47.288;18.646;2023-03-23T02:04:03;99722.59;;;5.24;77.13
74218;BME280;62579;47.288;18.646;2023-03-23T02:06:29;99722.84;;;5.11;77.52
74218;BME280;62579;47.288;18.646;2023-03-23T02:08:54;99724.50;;;5.09;76.70
74218;BME280;62579;47.288;18.646;2023-03-23T02:11:21;99722.66;;;5.00;76.63
74218;BME280;62579;47.288;18.646;2023-03-23T02:13:46;99714.34;;;5.04;76.48
74218;BME280;62579;47.288;18.646;2023-03-23T02:23:54;99722.94;;;4.78;77.92
74218;BME280;62579;47.288;18.646;2023-03-23T02:26:37;99719.53;;;4.69;78.75
74218;BME280;62579;47.288;18.646;2023-03-23T02:29:08;99710.69;;;4.68;78.92
74218;BME280;62579;47.288;18.646;2023-03-23T02:34:12;99723.28;;;4.71;78.99
74218;BME280;62579;47.288;18.646;2023-03-23T02:41:59;99723.25;;;4.95;77.83
74218;BME280;62579;47.288;18.646;2023-03-23T02:44:27;99731.44;;;4.86;78.12
74218;BME280;62579;47.288;18.646;2023-03-23T02:46:55;99728.25;;;4.87;77.82
74218;BME280;62579;47.288;18.646;2023-03-23T02:49:21;99731.19;;;4.99;77.44
74218;BME280;62579;47.288;18.646;2023-03-23T02:51:47;99731.66;;;4.97;77.51
74218;BME280;62579;47.288;18.646;2023-03-23T02:54:14;99736.94;;;4.92;77.99
74218;BME280;62579;47.288;18.646;2023-03-23T02:56:40;99725.44;;;4.82;78.35
74218;BME280;62579;47.288;18.646;2023-03-23T02:59:05;99730.44;;;4.74;78.27
74218;BME280;62579;47.288;18.646;2023-03-23T03:03:58;99729.66;;;4.59;78.33
74218;BME280;62579;47.288;18.646;2023-03-23T03:11:23;99737.62;;;4.45;78.97
74218;BME280;62579;47.288;18.646;2023-03-23T03:16:30;99738.25;;;4.40;78.89
74218;BME280;62579;47.288;18.646;2023-03-23T03:19:06;99734.37;;;4.41;78.89
74218;BME280;62579;47.288;18.646;2023-03-23T03:21:36;99732.00;;;4.34;78.85
74218;BME280;62579;47.288;18.646;2023-03-23T03:24:02;99739.91;;;4.37;79.07
74218;BME280;62579;47.288;18.646;2023-03-23T03:26:29;99731.25;;;4.33;78.95
74218;BME280;62579;47.288;18.646;2023-03-23T03:28:56;99730.69;;;4.29;79.41
74218;BME280;62579;47.288;18.646;2023-03-23T03:31:26;99736.69;;;4.24;79.41
74218;BME280;62579;47.288;18.646;2023-03-23T03:33:52;99741.31;;;4.23;79.58
74218;BME280;62579;47.288;18.646;2023-03-23T03:36:22;99736.09;;;4.20;79.79
74218;BME280;62579;47.288;18.646;2023-03-23T03:38:49;99747.06;;;4.16;79.82
74218;BME280;62579;47.288;18.646;2023-03-23T03:41:15;99745.53;;;4.15;79.89
74218;BME280;62579;47.288;18.646;2023-03-23T03:43:41;99749.28;;;4.18;79.85
74218;BME280;62579;47.288;18.646;2023-03-23T03:46:06;99740.00;;;4.19;79.65
74218;BME280;62579;47.288;18.646;2023-03-23T03:48:32;99752.88;;;4.15;79.97
74218;BME280;62579;47.288;18.646;2023-03-23T03:50:57;99751.97;;;4.18;79.75
74218;BME280;62579;47.288;18.646;2023-03-23T03:53:26;99752.31;;;4.02;80.64
74218;BME280;62579;47.288;18.646;2023-03-23T03:55:51;99754.88;;;3.96;81.18
74218;BME280;62579;47.288;18.646;2023-03-23T03:58:20;99748.13;;;4.01;81.03
74218;BME280;62579;47.288;18.646;2023-03-23T04:00:48;99757.41;;;4.00;81.80
74218;BME280;62579;47.288;18.646;2023-03-23T04:03:13;99760.53;;;3.98;82.00
74218;BME280;62579;47.288;18.646;2023-03-23T04:05:38;99758.47;;;4.02;81.55
74218;BME280;62579;47.288;18.646;2023-03-23T04:08:04;99767.72;;;4.01;81.52
74218;BME280;62579;47.288;18.646;2023-03-23T04:10:30;99768.03;;;4.03;81.27
74218;BME280;62579;47.288;18.646;2023-03-23T04:12:55;99771.19;;;3.93;81.54
74218;BME280;62579;47.288;18.646;2023-03-23T04:15:21;99770.88;;;4.00;81.35
74218;BME280;62579;47.288;18.646;2023-03-23T04:17:46;99762.50;;;3.98;81.53
74218;BME280;62579;47.288;18.646;2023-03-23T04:20:12;99765.94;;;3.98;81.42
74218;BME280;62579;47.288;18.646;2023-03-23T04:22:51;99763.56;;;3.91;81.48
74218;BME280;62579;47.288;18.646;2023-03-23T04:25:20;99764.75;;;3.90;81.58
74218;BME280;62579;47.288;18.646;2023-03-23T04:27:49;99771.78;;;3.88;81.84
74218;BME280;62579;47.288;18.646;2023-03-23T04:30:21;99771.66;;;3.91;81.80
74218;BME280;62579;47.288;18.646;2023-03-23T04:32:48;99772.69;;;3.94;81.55
74218;BME280;62579;47.288;18.646;2023-03-23T04:35:16;99768.66;;;3.89;81.94
74218;BME280;62579;47.288;18.646;2023-03-23T04:37:41;99774.47;;;3.88;81.92
74218;BME280;62579;47.288;18.646;2023-03-23T04:40:07;99773.72;;;3.96;81.29
74218;BME280;62579;47.288;18.646;2023-03-23T04:42:39;99764.47;;;3.97;81.03
74218;BME280;62579;47.288;18.646;2023-03-23T04:45:06;99761.91;;;3.94;81.20
74218;BME280;62579;47.288;18.646;2023-03-23T04:47:32;99773.59;;;3.91;81.58
74218;BME280;62579;47.288;18.646;2023-03-23T04:49:58;99764.75;;;3.99;81.42
74218;BME280;62579;47.288;18.646;2023-03-23T04:52:26;99760.25;;;4.05;81.54
74218;BME280;62579;47.288;18.646;2023-03-23T04:54:53;99760.25;;;4.05;81.78
74218;BME280;62579;47.288;18.646;2023-03-23T04:57:18;99765.31;;;4.12;81.96
74218;BME280;62579;47.288;18.646;2023-03-23T04:59:43;99765.16;;;4.16;82.59
74218;BME280;62579;47.288;18.646;2023-03-23T05:02:09;99764.25;;;4.19;82.79
74218;BME280;62579;47.288;18.646;2023-03-23T05:04:35;99775.72;;;4.29;82.52
74218;BME280;62579;47.288;18.646;2023-03-23T05:07:02;99768.84;;;4.28;83.09
74218;BME280;62579;47.288;18.646;2023-03-23T05:09:27;99773.94;;;4.25;83.29
74218;BME280;62579;47.288;18.646;2023-03-23T05:11:52;99776.31;;;4.33;83.05
74218;BME280;62579;47.288;18.646;2023-03-23T05:14:18;99770.31;;;4.38;82.72
74218;BME280;62579;47.288;18.646;2023-03-23T05:16:43;99771.19;;;4.44;82.59
74218;BME280;62579;47.288;18.646;2023-03-23T05:19:13;99760.22;;;4.47;82.92
74218;BME280;62579;47.288;18.646;2023-03-23T05:21:39;99776.38;;;4.56;82.97
74218;BME280;62579;47.288;18.646;2023-03-23T05:24:05;99776.03;;;4.63;82.79
74218;BME280;62579;47.288;18.646;2023-03-23T05:26:30;99775.22;;;4.72;82.74
74218;BME280;62579;47.288;18.646;2023-03-23T05:28:55;99772.63;;;4.87;83.32
74218;BME280;62579;47.288;18.646;2023-03-23T05:31:21;99771.87;;;4.86;83.44
74218;BME280;62579;47.288;18.646;2023-03-23T05:33:46;99778.44;;;4.85;82.71
74218;BME280;62579;47.288;18.646;2023-03-23T05:36:12;99779.22;;;4.85;82.05
74218;BME280;62579;47.288;18.646;2023-03-23T05:38:38;99778.84;;;4.93;81.35
74218;BME280;62579;47.288;18.646;2023-03-23T05:41:03;99776.28;;;4.98;80.45
74218;BME280;62579;47.288;18.646;2023-03-23T05:43:29;99778.16;;;5.07;80.15
74218;BME280;62579;47.288;18.646;2023-03-23T05:45:54;99773.66;;;5.13;79.97
74218;BME280;62579;47.288;18.646;2023-03-23T05:48:19;99771.72;;;5.28;79.50
74218;BME280;62579;47.288;18.646;2023-03-23T05:50:45;99771.63;;;5.22;79.66
74218;BME280;62579;47.288;18.646;2023-03-23T05:53:10;99776.06;;;5.49;79.00
74218;BME280;62579;47.288;18.646;2023-03-23T05:55:35;99778.88;;;5.69;78.81
74218;BME280;62579;47.288;18.646;2023-03-23T05:58:01;99773.81;;;5.86;78.33
74218;BME280;62579;47.288;18.646;2023-03-23T06:00:26;99771.56;;;5.99;77.78
74218;BME280;62579;47.288;18.646;2023-03-23T06:02:55;99777.97;;;6.16;78.17
74218;BME280;62579;47.288;18.646;2023-03-23T06:05:21;99778.72;;;6.31;78.22
74218;BME280;62579;47.288;18.646;2023-03-23T06:07:47;99769.84;;;6.45;78.71
74218;BME280;62579;47.288;18.646;2023-03-23T06:10:12;99771.38;;;6.67;78.71
74218;BME280;62579;47.288;18.646;2023-03-23T06:12:38;99774.28;;;6.83;78.78
74218;BME280;62579;47.288;18.646;2023-03-23T06:15:04;99775.81;;;7.04;78.29
74218;BME280;62579;47.288;18.646;2023-03-23T06:17:31;99768.84;;;7.18;77.67
74218;BME280;62579;47.288;18.646;2023-03-23T06:19:56;99760.62;;;7.33;77.40
74218;BME280;62579;47.288;18.646;2023-03-23T06:22:22;99762.59;;;7.52;76.73
74218;BME280;62579;47.288;18.646;2023-03-23T06:24:47;99764.59;;;7.57;76.21
74218;BME280;62579;47.288;18.646;2023-03-23T06:27:14;99754.63;;;7.69;76.13
74218;BME280;62579;47.288;18.646;2023-03-23T06:29:39;99764.97;;;7.70;76.35
74218;BME280;62579;47.288;18.646;2023-03-23T06:32:04;99759.97;;;7.89;75.76
74218;BME280;62579;47.288;18.646;2023-03-23T06:34:30;99759.59;;;8.02;75.28
74218;BME280;62579;47.288;18.646;2023-03-23T06:36:56;99757.16;;;8.04;75.31
74218;BME280;62579;47.288;18.646;2023-03-23T06:39:21;99758.47;;;8.14;75.43
74218;BME280;62579;47.288;18.646;2023-03-23T06:41:47;99766.25;;;8.32;74.71
74218;BME280;62579;47.288;18.646;2023-03-23T06:44:12;99762.63;;;8.40;75.18
74218;BME280;62579;47.288;18.646;2023-03-23T06:46:38;99765.97;;;8.61;74.48
74218;BME280;62579;47.288;18.646;2023-03-23T06:49:04;99765.53;;;8.68;74.38
74218;BME280;62579;47.288;18.646;2023-03-23T06:51:30;99766.63;;;8.87;73.78
74218;BME280;62579;47.288;18.646;2023-03-23T06:53:55;99765.94;;;8.98;72.87
74218;BME280;62579;47.288;18.646;2023-03-23T06:56:20;99765.97;;;9.03;73.25
74218;BME280;62579;47.288;18.646;2023-03-23T06:58:46;99773.19;;;9.23;72.86
74218;BME280;62579;47.288;18.646;2023-03-23T07:01:11;99768.56;;;9.40;72.18
74218;BME280;62579;47.288;18.646;2023-03-23T07:03:38;99766.53;;;9.24;72.35
74218;BME280;62579;47.288;18.646;2023-03-23T07:06:06;99760.44;;;9.51;72.16
74218;BME280;62579;47.288;18.646;2023-03-23T07:08:31;99760.97;;;9.72;71.86
74218;BME280;62579;47.288;18.646;2023-03-23T07:10:56;99765.91;;;9.85;71.39
74218;BME280;62579;47.288;18.646;2023-03-23T07:13:21;99768.41;;;9.99;71.14
74218;BME280;62579;47.288;18.646;2023-03-23T07:15:47;99774.31;;;9.98;71.33
74218;BME280;62579;47.288;18.646;2023-03-23T07:18:13;99777.84;;;10.15;71.46
74218;BME280;62579;47.288;18.646;2023-03-23T07:20:39;99772.87;;;10.30;71.17
74218;BME280;62579;47.288;18.646;2023-03-23T07:23:04;99777.81;;;10.37;71.23
74218;BME280;62579;47.288;18.646;2023-03-23T07:25:33;99777.81;;;10.54;70.44
74218;BME280;62579;47.288;18.646;2023-03-23T07:27:59;99783.47;;;10.67;70.40
74218;BME280;62579;47.288;18.646;2023-03-23T07:30:25;99779.75;;;10.81;69.95
74218;BME280;62579;47.288;18.646;2023-03-23T07:32:51;99779.22;;;10.88;69.62
74218;BME280;62579;47.288;18.646;2023-03-23T07:35:16;99787.34;;;11.05;68.43
74218;BME280;62579;47.288;18.646;2023-03-23T07:37:41;99787.75;;;11.25;67.88
74218;BME280;62579;47.288;18.646;2023-03-23T07:40:07;99788.91;;;11.41;67.40
74218;BME280;62579;47.288;18.646;2023-03-23T07:42:43;99784.12;;;11.58;66.72
74218;BME280;62579;47.288;18.646;2023-03-23T07:45:12;99785.31;;;11.68;66.54
74218;BME280;62579;47.288;18.646;2023-03-23T07:47:37;99784.44;;;11.90;66.34
74218;BME280;62579;47.288;18.646;2023-03-23T07:50:03;99785.03;;;12.13;66.00
74218;BME280;62579;47.288;18.646;2023-03-23T07:52:28;99777.66;;;12.32;64.99
74218;BME280;62579;47.288;18.646;2023-03-23T07:54:55;99781.13;;;12.32;64.41
74218;BME280;62579;47.288;18.646;2023-03-23T07:57:21;99769.81;;;12.52;62.64
74218;BME280;62579;47.288;18.646;2023-03-23T07:59:46;99776.44;;;12.57;61.94
74218;BME280;62579;47.288;18.646;2023-03-23T08:02:12;99785.78;;;12.67;61.38
74218;BME280;62579;47.288;18.646;2023-03-23T08:07:09;99784.62;;;13.05;59.90
74218;BME280;62579;47.288;18.646;2023-03-23T08:09:37;99781.88;;;13.30;57.73
74218;BME280;62579;47.288;18.646;2023-03-23T08:12:03;99787.97;;;13.41;57.96
74218;BME280;62579;47.288;18.646;2023-03-23T08:14:29;99778.06;;;13.57;57.39
74218;BME280;62579;47.288;18.646;2023-03-23T08:16:55;99772.84;;;13.72;56.91
74218;BME280;62579;47.288;18.646;2023-03-23T08:19:21;99781.81;;;13.72;56.49
74218;BME280;62579;47.288;18.646;2023-03-23T08:21:47;99784.75;;;13.74;56.51
74218;BME280;62579;47.288;18.646;2023-03-23T08:24:12;99783.06;;;13.90;55.92
74218;BME280;62579;47.288;18.646;2023-03-23T08:26:38;99783.84;;;14.04;56.08
74218;BME280;62579;47.288;18.646;2023-03-23T08:29:03;99782.69;;;14.12;55.61
74218;BME280;62579;47.288;18.646;2023-03-23T08:31:29;99785.63;;;14.33;55.40
74218;BME280;62579;47.288;18.646;2023-03-23T08:33:56;99791.16;;;14.27;55.56
74218;BME280;62579;47.288;18.646;2023-03-23T08:36:23;99796.72;;;14.54;55.05
74218;BME280;62579;47.288;18.646;2023-03-23T08:38:48;99794.34;;;14.76;53.70
74218;BME280;62579;47.288;18.646;2023-03-23T08:41:16;99792.12;;;14.88;53.34
74218;BME280;62579;47.288;18.646;2023-03-23T08:43:41;99795.69;;;15.09;53.00
74218;BME280;62579;47.288;18.646;2023-03-23T08:46:09;99790.22;;;15.09;52.42
74218;BME280;62579;47.288;18.646;2023-03-23T08:48:36;99784.09;;;15.16;52.55
74218;BME280;62579;47.288;18.646;2023-03-23T08:51:02;99799.69;;;15.21;52.51
74218;BME280;62579;47.288;18.646;2023-03-23T08:53:28;99793.34;;;15.39;52.16
74218;BME280;62579;47.288;18.646;2023-03-23T08:55:56;99794.38;;;15.49;51.82
74218;BME280;62579;47.288;18.646;2023-03-23T08:58:21;99793.41;;;15.73;50.87
74218;BME280;62579;47.288;18.646;2023-03-23T09:00:47;99794.47;;;15.91;50.32
74218;BME280;62579;47.288;18.646;2023-03-23T09:03:12;99790.34;;;16.18;50.13
74218;BME280;62579;47.288;18.646;2023-03-23T09:05:38;99786.19;;;16.24;48.79
74218;BME280;62579;47.288;18.646;2023-03-23T09:08:08;99779.91;;;16.37;48.81
74218;BME280;62579;47.288;18.646;2023-03-23T09:10:33;99771.50;;;16.63;49.38
74218;BME280;62579;47.288;18.646;2023-03-23T09:12:58;99773.25;;;16.81;49.03
74218;BME280;62579;47.288;18.646;2023-03-23T09:15:24;99774.22;;;16.92;48.59
74218;BME280;62579;47.288;18.646;2023-03-23T09:17:51;99780.31;;;16.98;48.28
74218;BME280;62579;47.288;18.646;2023-03-23T09:20:19;99775.56;;;16.98;48.40
74218;BME280;62579;47.288;18.646;2023-03-23T09:22:46;99773.09;;;17.15;47.55
74218;BME280;62579;47.288;18.646;2023-03-23T09:25:13;99766.38;;;17.31;50.74
74218;BME280;62579;47.288;18.646;2023-03-23T09:27:39;99774.72;;;17.54;47.28
74218;BME280;62579;47.288;18.646;2023-03-23T09:30:06;99771.09;;;17.67;46.78
74218;BME280;62579;47.288;18.646;2023-03-23T09:32:32;99767.47;;;17.94;46.55
74218;BME280;62579;47.288;18.646;2023-03-23T09:34:58;99770.06;;;18.30;45.31
74218;BME280;62579;47.288;18.646;2023-03-23T09:37:23;99772.28;;;18.54;43.52
74218;BME280;62579;47.288;18.646;2023-03-23T09:39:48;99766.00;;;18.62;44.63
74218;BME280;62579;47.288;18.646;2023-03-23T09:45:02;99767.28;;;18.76;44.17
74218;BME280;62579;47.288;18.646;2023-03-23T09:47:40;99760.09;;;18.80;42.77
74218;BME280;62579;47.288;18.646;2023-03-23T09:50:09;99759.38;;;18.80;43.43
74218;BME280;62579;47.288;18.646;2023-03-23T09:55:03;99747.41;;;18.77;43.23
74218;BME280;62579;47.288;18.646;2023-03-23T09:57:40;99754.78;;;18.67;43.65
74218;BME280;62579;47.288;18.646;2023-03-23T10:05:57;99746.47;;;18.90;42.96
74218;BME280;62579;47.288;18.646;2023-03-23T10:07:58;99739.09;;;19.00;42.55
74218;BME280;62579;47.288;18.646;2023-03-23T10:10:26;99742.56;;;19.08;42.83
74218;BME280;62579;47.288;18.646;2023-03-23T10:12:56;99739.72;;;19.23;42.72
74218;BME280;62579;47.288;18.646;2023-03-23T10:15:29;99736.78;;;19.21;43.64
74218;BME280;62579;47.288;18.646;2023-03-23T10:18:03;99729.03;;;19.27;42.67
74218;BME280;62579;47.288;18.646;2023-03-23T10:20:43;99727.56;;;19.26;42.58
74218;BME280;62579;47.288;18.646;2023-03-23T10:25:57;99723.00;;;19.61;42.25
74218;BME280;62579;47.288;18.646;2023-03-23T10:31:04;99710.97;;;19.73;41.81
74218;BME280;62579;47.288;18.646;2023-03-23T10:36:10;99698.09;;;19.93;41.35
74218;BME280;62579;47.288;18.646;2023-03-23T10:38:45;99700.25;;;20.02;41.61
74218;BME280;62579;47.288;18.646;2023-03-23T10:41:17;99693.66;;;19.98;39.95
74218;BME280;62579;47.288;18.646;2023-03-23T10:43:43;99688.81;;;20.06;40.12
74218;BME280;62579;47.288;18.646;2023-03-23T10:48:39;99689.41;;;19.97;40.05
74218;BME280;62579;47.288;18.646;2023-03-23T10:51:06;99688.59;;;19.87;40.66
74218;BME280;62579;47.288;18.646;2023-03-23T10:53:38;99685.91;;;19.96;40.44
74218;BME280;62579;47.288;18.646;2023-03-23T10:56:18;99681.03;;;19.87;39.95
74218;BME280;62579;47.288;18.646;2023-03-23T10:58:45;99686.28;;;19.75;40.12
74218;BME280;62579;47.288;18.646;2023-03-23T11:01:11;99688.28;;;19.75;40.34
74218;BME280;62579;47.288;18.646;2023-03-23T11:06:03;99695.16;;;19.91;40.29
74218;BME280;62579;47.288;18.646;2023-03-23T11:08:34;99689.25;;;19.95;39.72
74218;BME280;62579;47.288;18.646;2023-03-23T11:11:17;99693.00;;;20.07;39.75
74218;BME280;62579;47.288;18.646;2023-03-23T11:13:43;99692.38;;;20.16;39.28
74218;BME280;62579;47.288;18.646;2023-03-23T11:16:09;99679.84;;;20.40;39.23
74218;BME280;62579;47.288;18.646;2023-03-23T11:21:01;99674.00;;;20.53;38.37
74218;BME280;62579;47.288;18.646;2023-03-23T11:23:32;99671.31;;;20.45;38.96
74218;BME280;62579;47.288;18.646;2023-03-23T11:26:11;99670.25;;;20.75;39.33
74218;BME280;62579;47.288;18.646;2023-03-23T11:28:43;99658.97;;;20.90;39.19
74218;BME280;62579;47.288;18.646;2023-03-23T11:31:10;99666.28;;;20.95;37.73
74218;BME280;62579;47.288;18.646;2023-03-23T11:33:58;99652.81;;;20.82;38.75
74218;BME280;62579;47.288;18.646;2023-03-23T11:36:28;99655.69;;;20.74;39.21
74218;BME280;62579;47.288;18.646;2023-03-23T11:38:54;99643.22;;;20.83;38.65
74218;BME280;62579;47.288;18.646;2023-03-23T11:41:22;99649.84;;;20.70;39.29
74218;BME280;62579;47.288;18.646;2023-03-23T11:43:50;99648.09;;;20.92;38.64
74218;BME280;62579;47.288;18.646;2023-03-23T11:51:17;99647.44;;;21.28;38.06
74218;BME280;62579;47.288;18.646;2023-03-23T11:56:36;99640.09;;;21.49;37.42
74218;BME280;62579;47.288;18.646;2023-03-23T11:59:02;99639.81;;;21.45;37.53
74218;BME280;62579;47.288;18.646;2023-03-23T12:21:33;99614.94;;;22.20;36.74
74218;BME280;62579;47.288;18.646;2023-03-23T12:24:08;99604.00;;;22.12;36.97
74218;BME280;62579;47.288;18.646;2023-03-23T12:26:37;99603.09;;;21.91;37.40
74218;BME280;62579;47.288;18.646;2023-03-23T12:29:23;99598.28;;;21.91;37.12
74218;BME280;62579;47.288;18.646;2023-03-23T12:36:59;99599.50;;;22.27;35.91
74218;BME280;62579;47.288;18.646;2023-03-23T12:44:30;99601.06;;;22.20;36.64
74218;BME280;62579;47.288;18.646;2023-03-23T12:51:59;99575.63;;;22.81;35.39
74218;BME280;62579;47.288;18.646;2023-03-23T12:59:39;99574.91;;;22.81;35.67
74218;BME280;62579;47.288;18.646;2023-03-23T13:02:18;99573.91;;;22.57;35.82
74218;BME280;62579;47.288;18.646;2023-03-23T13:04:47;99565.00;;;22.49;35.42
74218;BME280;62579;47.288;18.646;2023-03-23T13:07:17;99566.47;;;22.69;35.65
74218;BME280;62579;47.288;18.646;2023-03-23T13:09:48;99561.50;;;22.77;35.25
74218;BME280;62579;47.288;18.646;2023-03-23T13:12:15;99568.34;;;22.57;35.45
74218;BME280;62579;47.288;18.646;2023-03-23T13:25:15;99567.94;;;22.60;35.54
74218;BME280;62579;47.288;18.646;2023-03-23T13:27:42;99567.34;;;22.52;35.70
74218;BME280;62579;47.288;18.646;2023-03-23T13:30:18;99560.72;;;22.86;34.94
74218;BME280;62579;47.288;18.646;2023-03-23T13:32:47;99555.34;;;22.88;34.22
74218;BME280;62579;47.288;18.646;2023-03-23T13:35:13;99555.53;;;22.61;35.24
74218;BME280;62579;47.288;18.646;2023-03-23T13:37:48;99549.41;;;22.63;35.45
74218;BME280;62579;47.288;18.646;2023-03-23T13:42:50;99549.81;;;22.59;35.88
74218;BME280;62579;47.288;18.646;2023-03-23T13:45:20;99542.81;;;22.49;35.69
74218;BME280;62579;47.288;18.646;2023-03-23T13:47:47;99546.94;;;22.48;35.68
74218;BME280;62579;47.288;18.646;2023-03-23T14:05:28;99536.25;;;22.73;35.84
74218;BME280;62579;47.288;18.646;2023-03-23T14:07:59;99536.47;;;22.96;35.68
74218;BME280;62579;47.288;18.646;2023-03-23T14:10:35;99538.72;;;22.59;34.67
74218;BME280;62579;47.288;18.646;2023-03-23T14:13:02;99532.31;;;22.66;34.50
74218;BME280;62579;47.288;18.646;2023-03-23T14:15:29;99532.62;;;22.32;35.57
74218;BME280;62579;47.288;18.646;2023-03-23T14:17:55;99531.47;;;22.64;35.17
74218;BME280;62579;47.288;18.646;2023-03-23T14:20:30;99527.94;;;22.63;34.81
74218;BME280;62579;47.288;18.646;2023-03-23T14:22:58;99526.44;;;22.62;34.80
74218;BME280;62579;47.288;18.646;2023-03-23T14:25:26;99535.22;;;22.68;35.63
74218;BME280;62579;47.288;18.646;2023-03-23T14:27:52;99526.91;;;22.68;34.07
74218;BME280;62579;47.288;18.646;2023-03-23T14:30:19;99523.66;;;22.82;33.93
74218;BME280;62579;47.288;18.646;2023-03-23T14:32:45;99531.50;;;22.95;34.14
74218;BME280;62579;47.288;18.646;2023-03-23T14:35:13;99535.50;;;23.13;34.12
74218;BME280;62579;47.288;18.646;2023-03-23T14:37:39;99539.44;;;22.79;34.25
74218;BME280;62579;47.288;18.646;2023-03-23T14:40:05;99528.94;;;22.78;34.84
74218;BME280;62579;47.288;18.646;2023-03-23T14:42:33;99526.53;;;22.93;34.36
74218;BME280;62579;47.288;18.646;2023-03-23T14:44:59;99522.84;;;23.00;33.87
74218;BME280;62579;47.288;18.646;2023-03-23T14:47:35;99522.16;;;22.90;34.32
74218;BME280;62579;47.288;18.646;2023-03-23T14:50:04;99523.13;;;22.64;35.38
74218;BME280;62579;47.288;18.646;2023-03-23T14:52:33;99528.50;;;22.71;35.11
74218;BME280;62579;47.288;18.646;2023-03-23T14:55:12;99527.84;;;23.02;33.85
74218;BME280;62579;47.288;18.646;2023-03-23T14:57:40;99525.88;;;22.73;34.07
74218;BME280;62579;47.288;18.646;2023-03-23T15:00:11;99523.53;;;22.60;34.72
74218;BME280;62579;47.288;18.646;2023-03-23T15:02:37;99526.19;;;22.58;34.84
74218;BME280;62579;47.288;18.646;2023-03-23T15:05:12;99529.37;;;22.64;34.43
74218;BME280;62579;47.288;18.646;2023-03-23T15:07:38;99525.03;;;22.52;34.61
74218;BME280;62579;47.288;18.646;2023-03-23T15:10:07;99530.03;;;22.34;34.98